createdAt,value
2022-12-09T06:49:54.105Z,23.15
2022-12-09T06:52:56.310Z,29.85
2022-12-09T06:56:11.088Z,31.73
2022-12-09T06:59:17.489Z,30.77
2022-12-09T07:02:20.593Z,26.92
2022-12-09T07:05:24.316Z,23.77
2022-12-09T07:08:26.911Z,24.65
2022-12-09T07:11:30.390Z,27.17
2022-12-09T07:14:32.704Z,31.30
2022-12-09T07:17:35.379Z,34.33
2022-12-09T07:20:37.959Z,34.30
2022-12-09T07:23:40.848Z,27.75
2022-12-09T07:26:43.411Z,34.78
2022-12-09T07:29:45.802Z,35.15
2022-12-09T07:32:48.730Z,27.17
2022-12-09T07:35:50.908Z,34.45
2022-12-09T07:38:59.431Z,28.73
2022-12-09T07:42:01.607Z,23.17
2022-12-09T07:45:04.919Z,23.83
2022-12-09T07:48:08.877Z,29.50
2022-12-09T07:51:12.093Z,29.15
2022-12-09T07:54:16.379Z,27.35
2022-12-09T07:57:19.014Z,29.25
2022-12-09T08:00:22.010Z,30.02
2022-12-09T08:03:24.721Z,35.15
2022-12-09T08:06:29.372Z,35.85
2022-12-09T08:09:32.138Z,30.08
2022-12-09T08:12:34.381Z,28.17
2022-12-09T08:15:36.574Z,29.88
2022-12-09T08:18:39.047Z,22.05
2022-12-09T08:21:41.538Z,26.92
2022-12-09T08:24:43.568Z,31.95
2022-12-09T08:27:45.657Z,29.10
2022-12-09T08:30:47.752Z,27.10
2022-12-09T08:33:50.712Z,27.10
2022-12-09T08:36:56.991Z,32.35
2022-12-09T08:40:02.851Z,31.40
2022-12-09T08:43:07.030Z,24.95
2022-12-09T08:46:09.762Z,26.77
2022-12-09T08:49:13.534Z,27.40
2022-12-09T08:52:15.747Z,23.38
2022-12-09T08:55:18.271Z,28.80
2022-12-09T08:58:20.529Z,21.88
2022-12-09T09:01:26.115Z,25.88
2022-12-09T09:04:28.213Z,26.08
2022-12-09T09:07:31.312Z,26.23
2022-12-09T09:10:34.118Z,23.45
2022-12-09T09:13:38.016Z,22.55
2022-12-09T09:16:42.051Z,21.40
2022-12-09T09:19:44.125Z,19.80
2022-12-09T09:22:47.004Z,28.08
2022-12-09T09:25:49.745Z,27.17
2022-12-09T09:28:52.413Z,26.52
2022-12-09T09:31:55.367Z,29.70
2022-12-09T09:34:58.618Z,25.35
2022-12-09T09:38:02.506Z,25.35
2022-12-09T09:41:17.304Z,20.52
2022-12-09T09:44:34.687Z,20.63
2022-12-09T09:47:43.509Z,27.20
2022-12-09T09:50:55.072Z,31.27
2022-12-09T09:53:57.372Z,28.30
2022-12-09T09:57:10.344Z,23.15
2022-12-09T10:00:35.400Z,24.77
2022-12-09T10:04:18.199Z,22.30
2022-12-09T10:07:29.077Z,22.77
2022-12-09T10:10:47.417Z,22.55
2022-12-09T10:14:15.677Z,29.13
2022-12-09T10:17:29.251Z,23.77
2022-12-09T10:20:33.134Z,28.63
2022-12-09T10:23:35.231Z,28.85
2022-12-09T10:26:38.726Z,27.80
2022-12-09T10:29:54.476Z,23.40
2022-12-09T10:32:57.113Z,30.23
2022-12-09T10:35:59.321Z,28.17
2022-12-09T10:39:01.764Z,25.38
2022-12-09T10:42:34.759Z,27.98
2022-12-09T10:49:22.702Z,28.70
2022-12-09T10:52:28.397Z,24.92
2022-12-09T10:55:35.713Z,23.85
2022-12-09T10:58:38.018Z,24.95
2022-12-09T11:01:58.633Z,28.50
2022-12-09T11:05:24.132Z,25.48
2022-12-09T11:11:49.776Z,29.60
2022-12-09T11:15:13.458Z,25.75
2022-12-09T11:18:38.052Z,27.73
2022-12-09T11:21:40.284Z,28.88
2022-12-09T11:24:42.456Z,29.23
2022-12-09T11:28:02.136Z,29.58
2022-12-09T11:31:45.812Z,41.28
2022-12-09T11:34:38.771Z,27.25
2022-12-09T11:37:40.909Z,28.98
2022-12-09T11:40:43.024Z,30.80
2022-12-09T11:43:49.025Z,34.67
2022-12-09T11:47:02.452Z,31.50
2022-12-09T11:50:19.186Z,31.30
2022-12-09T11:53:29.048Z,36.53
2022-12-09T11:56:32.848Z,31.30
2022-12-09T11:59:43.740Z,28.77
2022-12-09T12:03:03.031Z,42.63
2022-12-09T12:06:13.751Z,28.67
2022-12-09T12:09:26.961Z,31.25
2022-12-09T12:12:54.883Z,33.67
2022-12-09T12:16:16.376Z,30.60
2022-12-09T12:19:27.776Z,32.10
2022-12-09T12:22:59.116Z,36.20
2022-12-09T12:26:23.240Z,36.28
2022-12-09T12:30:05.037Z,40.10
2022-12-09T12:37:41.191Z,32.40
2022-12-09T12:40:58.106Z,36.78
2022-12-09T12:44:43.830Z,36.13
2022-12-09T12:47:57.640Z,33.60
2022-12-09T12:51:31.742Z,36.35
2022-12-09T12:54:57.188Z,36.55
2022-12-09T12:58:39.075Z,37.28
2022-12-09T13:01:54.905Z,37.75
2022-12-09T13:05:04.198Z,34.85
2022-12-09T13:08:29.996Z,40.15
2022-12-09T13:14:52.110Z,38.13
2022-12-09T13:17:54.670Z,36.55
2022-12-09T13:20:58.847Z,42.38
2022-12-09T13:24:26.971Z,41.27
2022-12-09T13:27:51.510Z,40.85
2022-12-09T13:30:58.616Z,38.42
2022-12-09T13:34:25.689Z,41.03
2022-12-09T13:37:43.843Z,40.83
2022-12-09T13:40:45.646Z,41.78
2022-12-09T13:43:47.398Z,50.55
2022-12-09T13:46:49.291Z,42.83
2022-12-09T13:49:56.797Z,44.28
2022-12-09T13:53:02.528Z,43.03
2022-12-09T13:56:18.949Z,43.65
2022-12-09T13:59:43.497Z,46.78
2022-12-09T14:02:57.229Z,40.65
2022-12-09T14:06:01.934Z,43.45
2022-12-09T14:09:18.797Z,38.00
2022-12-09T14:12:28.801Z,40.63
2022-12-09T14:15:30.574Z,41.35
2022-12-09T14:18:33.225Z,47.40
2022-12-09T14:21:35.261Z,39.63
2022-12-09T14:24:38.004Z,45.80
2022-12-09T14:27:39.784Z,42.10
2022-12-09T14:30:50.599Z,42.42
2022-12-09T14:33:52.512Z,41.13
2022-12-09T14:37:19.274Z,45.90
2022-12-09T14:41:00.896Z,38.80
2022-12-09T14:44:28.915Z,40.38
2022-12-09T14:47:33.619Z,45.38
2022-12-09T14:50:38.521Z,43.33
2022-12-09T14:53:40.396Z,38.67
2022-12-09T14:56:48.218Z,41.15
2022-12-09T14:59:52.931Z,42.53
2022-12-09T15:03:30.057Z,40.33
2022-12-09T15:06:19.088Z,36.80
2022-12-09T15:09:21.295Z,41.17
2022-12-09T15:12:35.083Z,38.63
2022-12-09T15:15:39.482Z,34.25
2022-12-09T15:18:42.794Z,45.88
2022-12-09T15:21:46.898Z,41.13
2022-12-09T15:24:50.451Z,43.40
2022-12-09T15:27:59.181Z,37.23
2022-12-09T15:31:05.361Z,41.22
2022-12-09T15:34:14.709Z,37.40
2022-12-09T15:37:19.218Z,43.83
2022-12-09T15:40:22.446Z,41.65
2022-12-09T15:43:24.268Z,42.78
2022-12-09T15:46:27.392Z,43.50
2022-12-09T15:49:35.460Z,39.05
2022-12-09T15:52:43.498Z,48.47
2022-12-09T15:55:50.514Z,46.50
2022-12-09T15:58:57.066Z,45.17
2022-12-09T16:02:00.337Z,42.70
2022-12-09T16:05:05.344Z,43.35
2022-12-09T16:08:07.176Z,49.33
2022-12-09T16:11:09.831Z,50.08
2022-12-09T16:14:12.967Z,44.42
2022-12-09T16:17:23.047Z,46.60
2022-12-09T16:20:45.169Z,42.88
2022-12-09T16:23:51.327Z,43.40
2022-12-09T16:26:54.770Z,42.85
2022-12-09T16:30:01.482Z,51.17
2022-12-09T16:33:03.727Z,45.33
2022-12-09T16:36:07.231Z,43.83
2022-12-09T16:39:08.926Z,49.78
2022-12-09T16:42:35.197Z,46.10
2022-12-09T16:45:40.661Z,47.95
2022-12-09T16:48:42.593Z,41.17
2022-12-09T16:51:44.526Z,45.40
2022-12-09T16:54:48.090Z,40.80
2022-12-09T16:57:50.684Z,47.33
